Time;durP1;ratioP1;P1;durP2;ratioP2;P2;SDS_P1;SDS_P2;PMS_P1;PMS_P2;Temp;Humidity;BMP_temperature;BMP_pressure;BME280_temperature;BME280_humidity;BME280_pressure;Samples;Min_cycle;Max_cycle;Signal;HPM_P1;HPM_P2
2022/11/25 00:00:49;;;;;;;;;8.00;8.00;;;;;10.89;85.30;100173.84;5075776;28;45363;-70
2022/11/25 00:03:14;;;;;;;;;6.00;6.00;;;;;10.81;85.83;100161.06;5075718;28;45276;-72
2022/11/25 00:05:40;;;;;;;;;8.00;8.00;;;;;10.84;85.70;100167.97;5075987;27;45364;-70
2022/11/25 00:08:05;;;;;;;;;6.00;6.00;;;;;10.86;85.16;100175.75;5075406;28;45619;-71
2022/11/25 00:10:31;;;;;;;;;5.25;5.25;;;;;10.79;85.39;100173.44;5075392;27;45497;-70
2022/11/25 00:12:56;;;;;;;;;3.50;3.50;;;;;10.85;84.39;100177.56;5075768;28;45381;-69
2022/11/25 00:15:21;;;;;;;;;5.50;5.50;;;;;10.82;84.60;100162.75;5075835;27;45575;-70
2022/11/25 00:17:46;;;;;;;;;4.75;4.75;;;;;10.88;85.10;100173.91;5075360;28;46515;-71
2022/11/25 00:20:12;;;;;;;;;5.00;5.00;;;;;10.90;84.88;100165.03;5075258;27;45344;-71
2022/11/25 00:22:37;;;;;;;;;5.75;4.00;;;;;10.88;84.60;100166.88;5073970;27;45287;-70
2022/11/25 00:25:03;;;;;;;;;5.75;5.50;;;;;10.93;84.80;100171.91;5075635;28;45663;-71
2022/11/25 00:27:28;;;;;;;;;6.00;6.00;;;;;10.92;84.28;100172.84;5075548;28;45773;-70
2022/11/25 00:29:53;;;;;;;;;5.00;5.00;;;;;10.93;85.03;100169.28;5074514;27;46676;-71
2022/11/25 00:32:19;;;;;;;;;5.00;5.00;;;;;10.96;85.15;100180.53;5074681;28;45424;-70
2022/11/25 00:34:44;;;;;;;;;5.75;5.75;;;;;10.98;84.83;100187.50;5075603;27;45559;-69
2022/11/25 00:37:09;;;;;;;;;5.00;5.00;;;;;10.99;84.56;100189.19;5073731;27;46559;-70
2022/11/25 00:39:35;;;;;;;;;5.25;5.25;;;;;11.00;85.03;100183.00;5074841;27;45326;-71
2022/11/25 00:44:44;;;;;;;;;3.50;3.50;;;;;10.98;84.62;100184.88;5075294;28;45353;-70
2022/11/25 00:47:15;;;;;;;;;4.50;4.50;;;;;10.99;84.88;100192.66;5074861;27;45410;-71
2022/11/25 00:49:52;;;;;;;;;9.50;7.75;;;;;10.97;84.72;100186.63;5074951;28;45315;-70
2022/11/25 00:52:20;;;;;;;;;6.00;6.00;;;;;10.95;84.40;100189.34;5074834;28;45490;-70
2022/11/25 00:54:46;;;;;;;;;3.50;3.50;;;;;10.88;84.33;100172.16;5074774;27;45257;-69
2022/11/25 00:57:13;;;;;;;;;4.25;4.25;;;;;10.88;84.87;100193.19;5074658;27;47069;-70
2022/11/25 00:59:39;;;;;;;;;6.00;6.00;;;;;10.84;84.34;100196.91;5074721;28;45295;-70
2022/11/25 01:02:04;;;;;;;;;5.00;5.00;;;;;10.60;84.72;100164.72;5074795;28;45425;-70
2022/11/25 01:04:29;;;;;;;;;4.25;4.25;;;;;10.75;84.39;100199.97;5075361;28;45489;-69
2022/11/25 01:06:55;;;;;;;;;4.00;4.00;;;;;10.68;84.62;100190.66;5074578;27;46166;-70
2022/11/25 01:09:21;;;;;;;;;4.25;4.25;;;;;10.68;85.08;100198.56;5074420;28;45341;-70
2022/11/25 01:11:50;;;;;;;;;6.00;6.00;;;;;10.60;84.64;100210.28;5074781;27;50218;-69
2022/11/25 01:14:16;;;;;;;;;7.00;7.00;;;;;10.59;84.54;100207.72;5074930;28;45509;-70
2022/11/25 01:16:41;;;;;;;;;2.50;2.50;;;;;10.53;84.76;100216.72;5090034;27;48008;-70
2022/11/25 01:19:07;;;;;;;;;7.00;7.00;;;;;10.47;84.92;100220.50;5074501;28;45269;-70
2022/11/25 01:21:33;;;;;;;;;4.75;4.75;;;;;10.45;85.46;100213.59;5075021;28;45430;-69
2022/11/25 01:24:00;;;;;;;;;6.00;6.00;;;;;10.46;85.59;100228.44;5075036;28;45361;-71
2022/11/25 01:26:26;;;;;;;;;6.00;5.00;;;;;10.42;85.83;100225.13;5074199;28;46472;-70
2022/11/25 01:28:54;;;;;;;;;6.00;6.00;;;;;10.40;85.72;100228.72;5074379;28;45362;-70
2022/11/25 01:31:21;;;;;;;;;5.00;5.00;;;;;10.38;85.30;100237.50;5074335;28;45300;-69
2022/11/25 01:33:51;;;;;;;;;3.50;3.50;;;;;10.35;86.15;100235.03;5073101;28;45656;-70
2022/11/25 01:36:17;;;;;;;;;3.25;3.25;;;;;10.25;85.66;100236.34;5089728;27;45905;-70
2022/11/25 01:38:44;;;;;;;;;5.75;5.75;;;;;10.30;86.26;100251.94;5073037;28;45637;-70
2022/11/25 01:41:13;;;;;;;;;4.00;4.00;;;;;10.27;85.78;100252.91;5074443;28;45231;-70
2022/11/25 01:43:39;;;;;;;;;5.75;5.75;;;;;10.24;86.30;100268.81;5078228;28;45410;-71
2022/11/25 01:46:29;;;;;;;;;4.00;4.00;;;;;10.21;85.98;100274.22;5078201;28;46279;-70
2022/11/25 01:49:00;;;;;;;;;4.00;4.00;;;;;10.20;86.58;100275.13;5078031;28;45325;-69
2022/11/25 01:51:42;;;;;;;;;6.00;6.00;;;;;10.14;86.69;100278.91;5077847;28;45357;-70
2022/11/25 01:54:11;;;;;;;;;9.00;9.00;;;;;10.11;86.63;100275.53;5077705;28;45500;-69
2022/11/25 01:56:47;;;;;;;;;5.00;4.00;;;;;10.11;86.80;100271.16;5077226;28;46428;-69
2022/11/25 01:59:12;;;;;;;;;4.00;4.00;;;;;10.10;86.78;100279.94;5077661;27;45469;-70
2022/11/25 02:01:38;;;;;;;;;2.00;2.00;;;;;10.05;86.62;100272.25;5077682;28;45235;-69
2022/11/25 02:04:06;;;;;;;;;11.75;11.75;;;;;10.03;87.26;100270.59;5078011;27;45329;-70
2022/11/25 02:06:37;;;;;;;;;5.00;5.00;;;;;10.04;86.78;100286.31;5077857;27;45287;-70
2022/11/25 02:09:07;;;;;;;;;4.00;4.00;;;;;10.03;87.02;100286.34;5077568;28;45208;-70
2022/11/25 02:11:35;;;;;;;;;4.75;4.75;;;;;10.01;87.36;100286.44;5078202;27;45564;-70
2022/11/25 02:14:02;;;;;;;;;4.25;4.25;;;;;9.98;86.89;100294.47;5077964;27;45413;-70
2022/11/25 02:16:27;;;;;;;;;4.25;4.25;;;;;10.00;87.00;100302.25;5078077;28;46734;-71
2022/11/25 02:18:53;;;;;;;;;3.50;3.50;;;;;9.97;87.49;100300.63;5077682;28;45228;-69
2022/11/25 02:21:29;;;;;;;;;3.50;3.50;;;;;9.97;87.08;100300.63;5076114;27;45300;-69
2022/11/25 02:24:02;;;;;;;;;5.25;5.25;;;;;9.93;86.84;100299.88;5077903;28;45284;-69
2022/11/25 02:26:27;;;;;;;;;3.25;3.25;;;;;9.90;87.79;100299.19;5078138;28;46739;-69
2022/11/25 02:28:53;;;;;;;;;4.25;4.25;;;;;9.83;87.26;100289.84;5077424;27;45368;-70
2022/11/25 02:31:21;;;;;;;;;5.50;5.00;;;;;9.87;87.54;100315.06;5077348;28;45380;-69
2022/11/25 02:33:46;;;;;;;;;4.00;4.00;;;;;9.88;87.37;100316.78;5077372;28;45507;-70
2022/11/25 02:36:15;;;;;;;;;6.75;6.75;;;;;9.84;88.18;100318.66;5076576;28;46580;-70
2022/11/25 02:38:48;;;;;;;;;5.00;5.00;;;;;9.81;87.38;100317.97;5077047;28;45388;-69
2022/11/25 02:41:25;;;;;;;;;11.75;11.75;;;;;9.81;87.88;100331.94;5076818;28;45424;-69
2022/11/25 02:43:50;;;;;;;;;5.00;5.00;;;;;9.79;87.91;100329.38;5077033;28;45355;-69
2022/11/25 02:46:19;;;;;;;;;5.00;5.00;;;;;9.75;87.79;100333.06;5076622;27;45475;-69
2022/11/25 02:48:45;;;;;;;;;3.50;3.50;;;;;9.74;88.00;100336.59;5076918;28;45473;-69
2022/11/25 02:51:13;;;;;;;;;3.75;3.75;;;;;9.73;87.75;100334.88;5076753;28;45202;-70
2022/11/25 02:53:39;;;;;;;;;5.25;5.00;;;;;9.70;87.71;100342.88;5075922;27;45347;-69
2022/11/25 02:56:04;;;;;;;;;3.00;3.00;;;;;9.67;87.66;100334.25;5076920;28;46215;-69
2022/11/25 02:58:30;;;;;;;;;5.00;5.00;;;;;9.68;87.77;100342.09;5076931;28;45571;-70
2022/11/25 03:00:55;;;;;;;;;3.50;3.50;;;;;9.65;88.06;100336.97;5077298;28;45472;-69
2022/11/25 03:03:21;;;;;;;;;3.00;3.00;;;;;9.61;88.03;100338.00;5076837;28;45323;-69
2022/11/25 03:05:46;;;;;;;;;5.00;3.00;;;;;9.61;87.51;100340.63;5074980;28;48329;-71
2022/11/25 03:08:12;;;;;;;;;5.00;4.50;;;;;9.60;87.40;100349.44;5076455;28;45386;-68
2022/11/25 03:10:38;;;;;;;;;3.75;3.75;;;;;9.61;87.82;100356.38;5075334;28;45360;-70
2022/11/25 03:13:04;;;;;;;;;3.00;3.00;;;;;9.60;87.81;100360.78;5076860;27;45512;-69
2022/11/25 03:15:30;;;;;;;;;4.50;3.75;;;;;9.63;87.60;100370.31;5076361;28;46354;-71
2022/11/25 03:17:56;;;;;;;;;4.00;3.75;;;;;9.59;87.87;100359.06;5075425;28;45765;-71
2022/11/25 03:20:21;;;;;;;;;4.00;4.00;;;;;9.53;87.72;100359.31;5076972;28;45342;-70
2022/11/25 03:22:47;;;;;;;;;3.00;3.00;;;;;9.56;87.25;100369.69;5076529;28;45587;-69
2022/11/25 03:25:14;;;;;;;;;3.75;3.75;;;;;9.61;87.48;100382.66;5076060;27;45464;-69
2022/11/25 03:27:40;;;;;;;;;5.75;5.75;;;;;9.59;87.76;100390.56;5076623;28;45914;-70
2022/11/25 03:30:08;;;;;;;;;4.25;4.25;;;;;9.55;87.57;100381.09;5092151;27;45357;-70
2022/11/25 03:32:33;;;;;;;;;2.75;2.75;;;;;9.54;87.87;100392.53;5076288;28;45267;-70
2022/11/25 03:34:59;;;;;;;;;4.00;4.00;;;;;9.49;87.67;100384.81;5075892;28;45291;-69
2022/11/25 03:37:24;;;;;;;;;4.25;4.25;;;;;9.46;88.18;100384.94;5076168;27;45164;-70
2022/11/25 03:39:50;;;;;;;;;3.25;3.25;;;;;9.52;88.19;100401.38;5076175;28;45551;-70
2022/11/25 03:42:15;;;;;;;;;4.75;4.00;;;;;9.51;87.67;100411.03;5076390;27;45321;-70
2022/11/25 03:44:40;;;;;;;;;4.00;4.00;;;;;9.48;88.16;100419.03;5076215;28;46412;-70
2022/11/25 03:47:05;;;;;;;;;4.00;4.00;;;;;9.49;87.84;100421.56;5076323;27;45432;-69
2022/11/25 03:49:31;;;;;;;;;4.75;4.75;;;;;9.48;87.68;100419.84;5074657;28;45260;-69
2022/11/25 03:51:57;;;;;;;;;4.25;4.25;;;;;9.45;87.79;100425.22;5076093;28;45565;-69
2022/11/25 03:54:22;;;;;;;;;5.00;5.00;;;;;9.47;88.20;100426.03;5075374;28;45508;-69
2022/11/25 03:56:48;;;;;;;;;5.00;5.00;;;;;9.47;87.64;100425.19;5075757;28;45296;-70
2022/11/25 03:59:13;;;;;;;;;5.50;5.00;;;;;9.44;87.74;100420.06;5075841;28;45389;-70
2022/11/25 04:01:39;;;;;;;;;4.25;4.00;;;;;9.40;87.72;100410.59;5076585;28;45322;-69
2022/11/25 04:04:04;;;;;;;;;5.00;4.50;;;;;9.45;87.73;100433.09;5075806;27;45290;-69
2022/11/25 04:06:30;;;;;;;;;6.00;4.75;;;;;9.42;87.84;100425.34;5075463;28;50176;-69
2022/11/25 04:08:56;;;;;;;;;4.00;4.00;;;;;9.44;88.05;100427.94;5076115;28;45862;-68
2022/11/25 04:12:45;;;;;;;;;4.25;4.25;;;;;9.46;87.75;100439.22;5075115;28;45579;-69
2022/11/25 04:14:07;;;;;;;;;4.75;4.75;;;;;9.41;87.96;100428.88;5076772;27;46469;-72
2022/11/25 04:16:32;;;;;;;;;7.00;6.25;;;;;9.42;87.91;100440.25;5075079;28;45258;-70
2022/11/25 04:18:57;;;;;;;;;4.50;4.50;;;;;9.44;88.50;100443.69;5067673;28;45246;-69
2022/11/25 04:21:23;;;;;;;;;5.00;5.00;;;;;9.39;88.07;100440.38;5060240;28;45492;-69
2022/11/25 04:23:48;;;;;;;;;2.25;2.00;;;;;9.44;88.35;100459.44;5065095;28;46220;-71
2022/11/25 04:26:14;;;;;;;;;2.00;2.00;;;;;9.43;88.13;100465.59;5075293;27;45389;-68
2022/11/25 04:28:39;;;;;;;;;5.00;4.00;;;;;9.41;88.37;100462.19;5075444;27;45421;-69
2022/11/25 04:31:06;;;;;;;;;5.25;5.25;;;;;9.41;88.39;100467.44;5075266;27;45187;-70
2022/11/25 04:33:31;;;;;;;;;5.25;5.25;;;;;9.42;88.32;100482.25;5074885;27;45411;-69
2022/11/25 04:35:57;;;;;;;;;5.00;5.00;;;;;9.39;88.47;100477.13;5075036;27;45370;-70
2022/11/25 04:38:22;;;;;;;;;4.50;4.50;;;;;9.39;88.60;100482.38;5074508;28;57624;-69
2022/11/25 04:40:47;;;;;;;;;5.00;5.00;;;;;9.39;88.68;100477.97;5075284;27;45334;-69
2022/11/25 04:43:13;;;;;;;;;8.00;6.75;;;;;9.36;88.87;100480.72;5075729;27;46075;-69
2022/11/25 04:45:38;;;;;;;;;3.75;3.75;;;;;9.36;88.75;100480.72;5075352;28;45286;-70
2022/11/25 04:48:04;;;;;;;;;7.00;5.25;;;;;9.35;88.75;100490.38;5075467;27;45506;-69
2022/11/25 04:50:29;;;;;;;;;6.25;4.75;;;;;9.33;88.90;100489.56;5075278;27;45575;-70
2022/11/25 04:52:55;;;;;;;;;8.25;8.25;;;;;9.33;88.87;100486.06;5074909;27;46536;-69
2022/11/25 04:55:20;;;;;;;;;8.50;6.25;;;;;9.34;89.19;100493.91;5074677;28;45298;-70
2022/11/25 04:57:46;;;;;;;;;5.00;5.00;;;;;9.34;89.01;100495.66;5075023;27;45349;-71
2022/11/25 05:00:11;;;;;;;;;4.50;4.50;;;;;9.33;89.46;100496.56;5075335;27;45341;-69
2022/11/25 05:02:37;;;;;;;;;7.00;7.00;;;;;9.30;88.82;100504.56;5074657;27;45618;-70
2022/11/25 05:05:03;;;;;;;;;6.25;6.25;;;;;9.28;89.01;100504.63;5074546;27;45255;-70
2022/11/25 05:07:28;;;;;;;;;5.00;5.00;;;;;9.31;88.78;100524.66;5074688;27;45330;-69
2022/11/25 05:09:55;;;;;;;;;5.00;5.00;;;;;9.26;89.04;100510.84;5074545;27;45484;-69
2022/11/25 05:12:23;;;;;;;;;8.00;6.25;;;;;9.27;88.47;100521.28;5074541;27;46339;-68
2022/11/25 05:14:49;;;;;;;;;6.00;6.00;;;;;9.23;88.78;100518.81;5074724;27;45315;-71
2022/11/25 05:17:17;;;;;;;;;7.75;7.50;;;;;9.25;88.68;100541.50;5078696;27;45383;-68
2022/11/25 05:19:43;;;;;;;;;5.50;5.50;;;;;9.20;88.95;100530.28;5081989;27;45567;-67
2022/11/25 05:22:13;;;;;;;;;4.00;4.00;;;;;9.24;89.02;100546.78;5081274;27;45169;-69
2022/11/25 05:24:39;;;;;;;;;3.25;3.25;;;;;9.20;88.96;100544.25;5081224;27;45384;-69
2022/11/25 05:27:05;;;;;;;;;6.50;6.50;;;;;9.19;88.91;100545.16;5081143;27;45308;-67
2022/11/25 05:29:30;;;;;;;;;7.75;7.00;;;;;9.19;88.94;100554.81;5081391;27;45640;-68
2022/11/25 05:31:55;;;;;;;;;5.75;5.75;;;;;9.19;88.86;100557.44;5081172;27;46318;-70
2022/11/25 05:34:21;;;;;;;;;5.50;4.00;;;;;9.20;89.07;100561.78;5080743;27;47378;-70
2022/11/25 05:36:46;;;;;;;;;5.75;5.75;;;;;9.19;89.09;100566.16;5080980;27;45386;-69
2022/11/25 05:39:11;;;;;;;;;8.50;6.75;;;;;9.17;89.18;100556.66;5081627;27;45537;-68
2022/11/25 05:41:37;;;;;;;;;8.50;7.50;;;;;9.19;89.35;100574.03;5080854;27;45493;-70
2022/11/25 05:44:04;;;;;;;;;7.75;7.75;;;;;9.18;89.40;100580.19;5080994;27;45271;-68
2022/11/25 05:46:29;;;;;;;;;7.00;7.00;;;;;9.17;89.08;100567.16;5081497;27;45361;-71
2022/11/25 05:48:55;;;;;;;;;5.50;5.50;;;;;9.21;89.81;100584.50;5081711;27;45530;-70
2022/11/25 05:51:22;;;;;;;;;5.25;5.25;;;;;9.18;89.29;100581.97;5080883;27;46101;-69
2022/11/25 05:53:47;;;;;;;;;5.00;5.00;;;;;9.19;89.43;100592.41;5080569;27;45494;-68
2022/11/25 05:56:13;;;;;;;;;6.25;6.00;;;;;9.14;89.16;100583.00;5080876;27;45345;-70
2022/11/25 05:58:38;;;;;;;;;6.50;6.50;;;;;9.16;89.61;100587.25;5081174;27;45383;-68
2022/11/25 06:01:08;;;;;;;;;11.75;8.00;;;;;9.14;89.58;100589.09;5080627;27;45369;-69
2022/11/25 06:03:34;;;;;;;;;5.75;5.75;;;;;9.14;89.31;100583.84;5080416;28;45349;-70
2022/11/25 06:06:01;;;;;;;;;9.00;8.50;;;;;9.11;89.61;100589.19;5080798;28;45257;-69
2022/11/25 06:08:26;;;;;;;;;4.50;4.50;;;;;9.10;89.23;100584.84;5096747;27;45642;-68
2022/11/25 06:10:52;;;;;;;;;5.50;5.00;;;;;9.06;89.11;100585.88;5080447;27;46331;-69
2022/11/25 06:13:18;;;;;;;;;5.50;4.75;;;;;9.08;89.08;100602.41;5080740;27;45452;-67
2022/11/25 06:15:44;;;;;;;;;6.00;5.75;;;;;9.07;89.35;100595.44;5080801;27;45484;-67
2022/11/25 06:18:11;;;;;;;;;7.25;4.75;;;;;9.04;89.58;100598.19;5080869;28;45562;-66
2022/11/25 06:20:37;;;;;;;;;7.00;7.00;;;;;9.06;89.34;100605.09;5080253;27;45345;-67
2022/11/25 06:23:03;;;;;;;;;5.25;5.25;;;;;9.06;89.77;100607.72;5080242;27;45390;-69
2022/11/25 06:25:28;;;;;;;;;6.75;6.75;;;;;9.08;89.50;100612.91;5080709;28;45335;-71
2022/11/25 06:27:54;;;;;;;;;6.00;6.00;;;;;9.03;88.75;100601.72;5079241;27;45300;-70
2022/11/25 06:30:19;;;;;;;;;6.75;6.75;;;;;9.08;89.01;100615.53;5076991;27;46285;-69
2022/11/25 06:32:45;;;;;;;;;6.00;6.00;;;;;9.05;89.04;100621.75;5077294;27;45358;-70
2022/11/25 06:35:10;;;;;;;;;4.00;4.00;;;;;9.08;89.21;100626.03;5077486;28;45355;-70
2022/11/25 06:37:36;;;;;;;;;7.00;7.00;;;;;9.08;89.11;100633.91;5077096;27;45562;-70
2022/11/25 06:40:01;;;;;;;;;8.50;8.50;;;;;9.08;89.13;100640.94;5076471;27;45692;-69
2022/11/25 06:42:27;;;;;;;;;7.00;7.00;;;;;9.06;88.69;100633.97;5092352;27;46136;-69
2022/11/25 06:44:52;;;;;;;;;8.50;7.75;;;;;9.06;88.81;100640.97;5076621;28;45524;-69
2022/11/25 06:47:18;;;;;;;;;7.75;7.75;;;;;9.04;88.31;100648.91;5077326;27;45488;-69
2022/11/25 06:49:43;;;;;;;;;7.50;7.50;;;;;9.03;89.14;100647.19;5076576;27;45350;-70
2022/11/25 06:52:09;;;;;;;;;7.75;7.75;;;;;9.01;88.67;100642.88;5076756;27;45331;-68
2022/11/25 06:54:39;;;;;;;;;6.00;6.00;;;;;8.98;88.22;100643.84;5076934;27;45422;-70
2022/11/25 06:57:05;;;;;;;;;6.25;6.00;;;;;8.98;88.24;100646.44;5077120;27;45290;-70
2022/11/25 06:59:31;;;;;;;;;4.00;4.00;;;;;8.98;88.09;100646.44;5092104;27;48387;-69
2022/11/25 07:01:57;;;;;;;;;13.00;13.00;;;;;8.97;88.26;100646.53;5076553;27;45323;-68
2022/11/25 07:04:22;;;;;;;;;10.75;10.75;;;;;8.95;88.20;100646.56;5076657;28;45242;-70
2022/11/25 07:06:49;;;;;;;;;14.00;14.00;;;;;8.96;88.40;100644.81;5076938;27;45544;-68
2022/11/25 07:09:14;;;;;;;;;8.25;7.25;;;;;8.96;88.83;100650.91;5076006;27;45472;-70
2022/11/25 07:11:40;;;;;;;;;8.00;8.00;;;;;8.94;88.28;100650.09;5075792;28;50306;-69
2022/11/25 07:14:10;;;;;;;;;8.00;8.00;;;;;8.94;88.00;100664.97;5074370;27;45354;-70
2022/11/25 07:16:37;;;;;;;;;7.00;7.00;;;;;8.94;87.97;100667.59;5076683;27;45583;-69
2022/11/25 07:19:03;;;;;;;;;6.00;6.00;;;;;8.95;88.29;100677.19;5076298;27;45440;-71
2022/11/25 07:21:30;;;;;;;;;10.00;9.00;;;;;8.94;88.63;100675.47;5076053;27;45459;-69
2022/11/25 07:24:00;;;;;;;;;22.75;22.50;;;;;8.97;88.54;100684.09;5076209;27;45396;-69
2022/11/25 07:26:28;;;;;;;;;8.75;8.50;;;;;8.96;88.45;100692.88;5076125;27;45417;-71
2022/11/25 07:28:58;;;;;;;;;8.50;8.00;;;;;8.98;88.30;100695.47;5074229;28;47211;-71
2022/11/25 07:31:31;;;;;;;;;13.25;13.25;;;;;8.99;88.39;100700.66;5075954;27;45325;-70
2022/11/25 07:34:02;;;;;;;;;10.00;10.00;;;;;8.97;88.46;100699.84;5076160;28;45557;-72
2022/11/25 07:36:29;;;;;;;;;10.00;9.00;;;;;9.04;88.29;100717.13;5076130;27;45514;-70
2022/11/25 07:38:57;;;;;;;;;10.75;9.25;;;;;9.05;88.39;100717.97;5075427;27;45653;-70
2022/11/25 07:41:24;;;;;;;;;10.00;10.00;;;;;9.05;87.99;100712.72;5075866;27;45296;-69
2022/11/25 07:43:53;;;;;;;;;13.75;13.00;;;;;9.02;88.25;100704.94;5076340;27;45286;-69
2022/11/25 07:46:22;;;;;;;;;12.25;12.25;;;;;9.02;88.55;100712.81;5076309;27;45471;-68
2022/11/25 07:48:48;;;;;;;;;12.00;12.00;;;;;9.07;87.92;100718.78;5075387;27;45590;-67
2022/11/25 07:51:19;;;;;;;;;13.00;12.50;;;;;9.06;88.10;100727.56;5091246;27;45342;-67
2022/11/25 07:53:46;;;;;;;;;14.50;14.50;;;;;8.99;87.67;100716.38;5075360;27;45408;-68
2022/11/25 07:56:13;;;;;;;;;11.50;11.50;;;;;9.04;87.93;100743.38;5091603;27;45353;-68
2022/11/25 07:58:38;;;;;;;;;14.50;14.50;;;;;9.03;88.00;100746.03;5075469;27;46062;-68
2022/11/25 08:01:05;;;;;;;;;13.75;13.75;;;;;8.95;87.98;100727.03;5091006;27;45213;-71
2022/11/25 08:03:32;;;;;;;;;14.50;14.00;;;;;9.07;87.82;100755.53;5075735;28;45439;-70
2022/11/25 08:06:06;;;;;;;;;14.00;13.75;;;;;9.09;87.60;100766.00;5076186;27;45508;-70
2022/11/25 08:08:32;;;;;;;;;17.75;16.75;;;;;9.02;87.41;100768.81;5075505;27;46395;-70
2022/11/25 08:10:58;;;;;;;;;25.00;23.50;;;;;9.06;87.94;100778.28;5075061;27;45373;-70
2022/11/25 08:13:24;;;;;;;;;15.00;14.25;;;;;9.04;87.58;100777.47;5075278;27;45479;-69
2022/11/25 08:15:49;;;;;;;;;16.00;14.50;;;;;9.06;87.17;100788.78;5075505;27;45513;-67
2022/11/25 08:18:15;;;;;;;;;11.25;11.25;;;;;8.88;87.04;100768.34;5075046;27;46348;-69
2022/11/25 08:20:40;;;;;;;;;17.00;13.75;;;;;9.07;87.34;100794.88;5075303;27;45491;-67
2022/11/25 08:23:06;;;;;;;;;19.50;19.50;;;;;9.09;87.59;100795.69;5075548;27;45326;-69
2022/11/25 08:25:31;;;;;;;;;14.50;14.50;;;;;9.11;87.39;100799.13;5076274;27;45366;-72
2022/11/25 08:28:00;;;;;;;;;13.75;13.25;;;;;9.11;87.53;100799.13;5074776;27;45379;-69
2022/11/25 08:30:26;;;;;;;;;15.75;15.75;;;;;9.08;87.51;100791.34;5075292;27;45440;-70
2022/11/25 08:32:52;;;;;;;;;13.50;12.00;;;;;9.12;87.75;100802.63;5075707;27;45173;-68
2022/11/25 08:35:19;;;;;;;;;14.00;12.75;;;;;9.07;87.22;100808.00;5075860;28;45473;-71
2022/11/25 08:37:44;;;;;;;;;13.00;13.00;;;;;9.09;87.21;100819.31;5075012;28;46570;-69
2022/11/25 08:40:11;;;;;;;;;22.75;21.75;;;;;9.12;87.57;100821.00;5074551;27;45389;-71
2022/11/25 08:42:37;;;;;;;;;14.75;14.00;;;;;9.12;87.34;100826.25;5075265;27;45359;-69
2022/11/25 08:45:05;;;;;;;;;10.50;10.50;;;;;9.11;87.25;100825.38;5074753;27;45433;-68
2022/11/25 08:47:30;;;;;;;;;16.50;15.50;;;;;9.12;87.16;100821.84;5074782;27;46166;-69
2022/11/25 08:49:56;;;;;;;;;14.75;14.75;;;;;9.12;87.16;100829.72;5075301;27;45480;-72
2022/11/25 08:52:22;;;;;;;;;10.00;10.00;;;;;9.10;87.04;100818.41;5074503;27;45168;-70
2022/11/25 08:54:48;;;;;;;;;19.00;14.75;;;;;9.15;86.97;100842.75;5075428;27;45797;-68
2022/11/25 08:57:14;;;;;;;;;10.00;9.50;;;;;9.15;86.89;100836.66;5074917;27;46369;-69
2022/11/25 08:59:40;;;;;;;;;27.75;27.75;;;;;9.17;86.94;100846.19;5074587;27;45472;-69
2022/11/25 09:02:07;;;;;;;;;12.75;12.75;;;;;9.20;86.68;100850.50;5075123;28;45397;-70
2022/11/25 09:04:32;;;;;;;;;10.75;10.25;;;;;9.21;86.39;100857.47;5075218;28;45610;-69
2022/11/25 09:06:59;;;;;;;;;9.50;9.50;;;;;9.25;86.45;100861.72;5075161;27;47166;-68
2022/11/25 09:09:24;;;;;;;;;13.75;13.75;;;;;9.25;86.64;100859.09;5090819;27;45333;-71
2022/11/25 09:11:50;;;;;;;;;13.75;13.50;;;;;9.33;86.58;100862.34;5075141;27;45362;-70
2022/11/25 09:14:15;;;;;;;;;12.75;12.50;;;;;9.35;86.57;100873.66;5075364;27;45544;-70
2022/11/25 09:16:41;;;;;;;;;12.50;12.50;;;;;9.43;86.55;100883.91;5074799;28;50609;-68
2022/11/25 09:19:06;;;;;;;;;11.25;10.00;;;;;9.46;85.63;100888.22;5074694;27;45319;-71
2022/11/25 09:21:31;;;;;;;;;13.00;12.00;;;;;9.50;85.77;100889.84;5074626;27;45515;-70
2022/11/25 09:23:57;;;;;;;;;12.50;12.00;;;;;9.54;85.29;100898.47;5074948;27;45565;-70
2022/11/25 09:26:27;;;;;;;;;11.50;11.00;;;;;9.54;85.59;100891.47;5074346;27;46366;-70
2022/11/25 09:28:53;;;;;;;;;11.00;11.00;;;;;9.55;85.18;100898.44;5074405;27;46110;-71
2022/11/25 09:31:19;;;;;;;;;5.00;5.00;;;;;9.61;84.89;100907.91;5074247;27;45270;-69
2022/11/25 09:33:45;;;;;;;;;3.75;3.75;;;;;9.62;84.28;100914.88;5074724;27;45560;-70
2022/11/25 09:36:12;;;;;;;;;7.00;7.00;;;;;9.62;83.94;100920.97;5074274;27;46437;-70
2022/11/25 09:38:38;;;;;;;;;13.00;13.00;;;;;9.63;84.42;100922.69;5073366;28;45537;-68
2022/11/25 09:47:57;;;;;;;;;7.75;7.75;;;;;9.70;83.22;100931.25;5073757;28;45916;-72
2022/11/25 09:50:46;;;;;;;;;10.25;10.25;;;;;9.70;83.50;100935.63;5072419;28;45493;-70
2022/11/25 09:53:38;;;;;;;;;8.00;8.00;;;;;9.71;82.92;100935.59;5073791;28;45463;-68
2022/11/25 09:56:21;;;;;;;;;9.25;9.25;;;;;9.72;83.34;100950.47;5074126;27;45433;-69
2022/11/25 09:58:54;;;;;;;;;13.75;13.75;;;;;9.73;82.72;100952.19;5073801;28;45629;-70
2022/11/25 10:01:24;;;;;;;;;6.50;6.50;;;;;9.70;82.37;100948.78;5073826;27;45456;-69
2022/11/25 10:04:00;;;;;;;;;12.25;10.00;;;;;9.72;82.60;100966.22;5076455;27;45260;-68
2022/11/25 10:06:35;;;;;;;;;11.00;11.00;;;;;9.73;82.60;100962.69;5077789;27;45428;-69
2022/11/25 10:09:13;;;;;;;;;8.50;8.50;;;;;9.75;82.32;100975.75;5077698;27;46517;-69
2022/11/25 10:12:23;;;;;;;;;7.75;7.75;;;;;9.77;82.08;100969.56;5077224;27;45284;-69
2022/11/25 10:14:54;;;;;;;;;10.75;10.75;;;;;9.76;82.66;100970.47;5077376;27;45333;-68
2022/11/25 10:17:37;;;;;;;;;10.50;10.00;;;;;9.85;82.72;100978.97;5076320;28;45460;-71
2022/11/25 10:20:11;;;;;;;;;7.25;7.25;;;;;9.87;82.41;100972.75;5077575;28;46348;-68
2022/11/25 10:22:41;;;;;;;;;12.75;12.75;;;;;9.92;82.28;100978.72;5077261;28;45273;-69
2022/11/25 10:25:30;;;;;;;;;10.25;10.25;;;;;9.94;81.68;100974.28;5077334;27;45382;-68
2022/11/25 10:28:04;;;;;;;;;10.75;10.75;;;;;9.99;81.59;100986.41;5077481;27;45258;-67
2022/11/25 10:30:51;;;;;;;;;13.00;11.75;;;;;10.03;81.36;100991.53;5077213;28;46708;-68
2022/11/25 10:33:26;;;;;;;;;8.50;8.25;;;;;10.03;81.15;100986.28;5076982;27;45246;-68
2022/11/25 10:35:56;;;;;;;;;9.25;8.25;;;;;10.08;80.85;100992.25;5077005;27;45380;-68
2022/11/25 10:38:28;;;;;;;;;8.50;8.50;;;;;10.11;80.20;100993.94;5076827;27;45427;-68
2022/11/25 10:40:54;;;;;;;;;7.75;7.50;;;;;10.16;80.76;101004.31;5076563;27;45582;-68
2022/11/25 10:43:20;;;;;;;;;7.50;7.50;;;;;10.19;80.78;101005.06;5075061;28;45688;-69
2022/11/25 10:46:13;;;;;;;;;8.25;6.50;;;;;10.20;80.42;101004.16;5076389;27;45344;-68
2022/11/25 10:49:00;;;;;;;;;11.00;11.00;;;;;10.27;80.14;100996.94;5076641;28;45425;-68
2022/11/25 10:51:38;;;;;;;;;5.75;5.75;;;;;10.32;79.91;101008.16;5076206;27;47126;-70
2022/11/25 10:54:12;;;;;;;;;11.75;10.25;;;;;10.35;79.52;101002.78;5076375;27;45327;-70
2022/11/25 10:56:53;;;;;;;;;17.25;16.00;;;;;10.38;79.70;101002.69;5076244;27;45418;-67
2022/11/25 10:59:23;;;;;;;;;10.00;9.25;;;;;10.46;79.46;101015.63;5076760;27;45367;-69
2022/11/25 11:01:51;;;;;;;;;10.25;10.25;;;;;10.50;79.41;101024.28;5076025;27;45197;-68
2022/11/25 11:04:18;;;;;;;;;10.75;8.50;;;;;10.54;79.00;101023.25;5075996;27;45419;-70
2022/11/25 11:06:48;;;;;;;;;10.50;10.50;;;;;10.60;79.31;101020.47;5076219;27;45446;-69
2022/11/25 11:09:37;;;;;;;;;12.75;12.75;;;;;10.66;78.86;101027.28;5076365;27;45228;-67
2022/11/25 11:12:29;;;;;;;;;10.00;9.25;;;;;10.71;78.63;101027.13;5076146;27;46959;-69
2022/11/25 11:15:18;;;;;;;;;8.00;8.00;;;;;10.77;78.61;101033.03;5072053;27;45195;-69
2022/11/25 11:17:44;;;;;;;;;11.25;11.25;;;;;10.75;78.35;101020.84;5076207;27;45343;-69
2022/11/25 11:20:21;;;;;;;;;10.25;9.75;;;;;10.90;78.09;101036.13;5076233;27;45434;-70
2022/11/25 11:22:53;;;;;;;;;12.25;12.25;;;;;10.99;77.85;101034.06;5091287;27;47576;-69
2022/11/25 11:25:19;;;;;;;;;13.25;13.25;;;;;11.05;77.61;101039.13;5075783;27;45322;-69
2022/11/25 11:27:44;;;;;;;;;13.75;13.75;;;;;11.12;77.88;101043.25;5076159;27;45456;-69
2022/11/25 11:30:15;;;;;;;;;15.00;14.25;;;;;11.18;77.06;101045.69;5076173;27;45528;-68
2022/11/25 11:32:44;;;;;;;;;8.25;8.25;;;;;11.24;77.13;101050.72;5073969;28;47092;-70
2022/11/25 11:35:21;;;;;;;;;7.50;7.50;;;;;11.29;76.71;101052.34;5075732;28;45356;-68
2022/11/25 11:37:58;;;;;;;;;7.75;7.75;;;;;11.34;76.56;101058.28;5075776;27;45384;-68
2022/11/25 11:40:39;;;;;;;;;5.50;5.50;;;;;11.35;76.49;101063.53;5076038;27;45267;-70